createdAt,value
2019-06-20T00:00:46.042Z,190.15
2019-06-20T00:03:16.959Z,191.50
2019-06-20T00:05:46.322Z,179.50
2019-06-20T00:08:15.628Z,191.75
2019-06-20T00:10:45.047Z,176.05
2019-06-20T00:13:14.379Z,167.87
2019-06-20T00:15:43.741Z,171.65
2019-06-20T00:18:13.558Z,175.95
2019-06-20T00:20:42.849Z,180.52
2019-06-20T00:23:12.173Z,212.45
2019-06-20T00:25:41.468Z,181.25
2019-06-20T00:28:10.853Z,215.45
2019-06-20T00:30:40.765Z,206.57
2019-06-20T00:33:10.069Z,229.53
2019-06-20T00:35:39.353Z,195.80
2019-06-20T00:38:08.672Z,193.57
2019-06-20T00:40:37.968Z,191.25
2019-06-20T00:43:17.493Z,175.12
2019-06-20T00:45:39.332Z,176.70
2019-06-20T00:48:08.661Z,183.55
2019-06-20T00:50:37.944Z,181.22
2019-06-20T00:53:07.358Z,186.52
2019-06-20T00:55:36.668Z,196.82
2019-06-20T00:58:05.946Z,190.68
2019-06-20T01:00:35.249Z,188.82
2019-06-20T01:03:04.905Z,192.98
2019-06-20T01:05:34.213Z,189.52
2019-06-20T01:08:03.499Z,226.30
2019-06-20T01:10:32.816Z,192.75
2019-06-20T01:13:02.097Z,211.72
2019-06-20T01:15:31.415Z,239.60
2019-06-20T01:18:00.716Z,227.18
2019-06-20T01:20:30.021Z,219.50
2019-06-20T01:22:59.319Z,224.67
2019-06-20T01:25:40.767Z,223.30
2019-06-20T01:28:11.087Z,223.28
2019-06-20T01:30:41.010Z,265.32
2019-06-20T01:33:10.315Z,255.45
2019-06-20T01:35:39.617Z,219.18
2019-06-20T01:38:08.922Z,269.60
2019-06-20T01:40:38.222Z,260.20
2019-06-20T01:43:07.520Z,254.50
2019-06-20T01:45:36.845Z,263.45
2019-06-20T01:48:06.137Z,292.00
2019-06-20T01:50:35.451Z,279.60
2019-06-20T01:53:04.849Z,275.95
2019-06-20T01:55:34.170Z,279.68
2019-06-20T01:58:03.480Z,292.02
2019-06-20T02:00:49.186Z,290.48
2019-06-20T02:03:19.143Z,310.38
2019-06-20T02:05:48.514Z,310.00
2019-06-20T02:08:17.825Z,314.20
2019-06-20T02:10:47.158Z,315.18
2019-06-20T02:13:16.486Z,314.12
2019-06-20T02:15:45.803Z,306.63
2019-06-20T02:18:15.525Z,300.48
2019-06-20T02:20:50.195Z,282.98
2019-06-20T02:23:21.419Z,283.65
2019-06-20T02:25:52.666Z,312.02
2019-06-20T02:28:22.882Z,313.15
2019-06-20T02:30:52.350Z,326.48
2019-06-20T02:33:21.667Z,344.05
2019-06-20T02:35:51.032Z,305.55
2019-06-20T02:38:20.358Z,285.50
2019-06-20T02:40:49.902Z,291.12
2019-06-20T02:43:19.220Z,281.43
2019-06-20T02:45:48.510Z,278.23
2019-06-20T02:48:17.829Z,305.77
2019-06-20T02:50:47.192Z,287.27
2019-06-20T02:53:16.504Z,329.45
2019-06-20T02:55:46.568Z,283.20
2019-06-20T02:58:17.445Z,293.60
2019-06-20T03:00:54.918Z,323.80
2019-06-20T03:03:24.873Z,297.10
2019-06-20T03:05:54.334Z,300.15
2019-06-20T03:08:24.129Z,319.15
2019-06-20T03:10:53.561Z,317.57
2019-06-20T03:13:22.953Z,317.98
2019-06-20T03:15:52.319Z,317.98
2019-06-20T03:18:21.633Z,298.18
2019-06-20T03:20:50.929Z,270.85
2019-06-20T03:23:20.233Z,311.48
2019-06-20T03:25:49.588Z,293.73
2019-06-20T03:28:18.918Z,289.30
2019-06-20T03:30:48.274Z,265.60
2019-06-20T03:33:17.664Z,266.88
2019-06-20T03:35:46.956Z,254.23
2019-06-20T03:38:16.266Z,275.82
2019-06-20T03:40:45.562Z,306.05
2019-06-20T03:43:14.880Z,262.05
2019-06-20T03:45:44.176Z,268.20
2019-06-20T03:48:13.484Z,249.32
2019-06-20T03:50:42.777Z,240.30
2019-06-20T03:53:12.751Z,241.02
2019-06-20T03:55:42.118Z,256.40
2019-06-20T03:58:11.421Z,262.30
2019-06-20T04:00:40.709Z,242.50
2019-06-20T04:03:10.037Z,240.05
2019-06-20T04:05:39.345Z,237.25
2019-06-20T04:08:08.660Z,224.40
2019-06-20T04:10:37.954Z,239.97
2019-06-20T04:13:07.255Z,206.57
2019-06-20T04:15:36.552Z,232.52
2019-06-20T04:18:06.056Z,225.35
2019-06-20T04:20:35.338Z,196.85
2019-06-20T04:23:04.660Z,198.28
2019-06-20T04:25:33.947Z,187.85
2019-06-20T04:28:03.267Z,190.73
2019-06-20T04:30:32.545Z,220.15
2019-06-20T04:33:01.855Z,191.47
2019-06-20T04:35:31.141Z,210.25
2019-06-20T04:38:00.442Z,210.32
2019-06-20T04:40:29.859Z,189.35
2019-06-20T04:42:59.175Z,207.92
2019-06-20T04:45:35.285Z,212.40
2019-06-20T04:48:01.115Z,212.32
2019-06-20T04:50:30.425Z,202.78
2019-06-20T04:52:59.755Z,192.60
2019-06-20T04:55:29.038Z,173.07
2019-06-20T04:57:58.339Z,154.65
2019-06-20T05:00:28.069Z,145.97
2019-06-20T05:02:57.372Z,152.62
2019-06-20T05:05:26.654Z,149.60
2019-06-20T05:07:55.973Z,154.12
2019-06-20T05:10:25.249Z,148.47
2019-06-20T05:12:56.065Z,153.68
2019-06-20T05:15:25.526Z,137.00
2019-06-20T05:17:54.829Z,136.35
2019-06-20T05:20:24.110Z,141.70
2019-06-20T05:22:53.417Z,115.20
2019-06-20T05:25:22.693Z,89.07
2019-06-20T05:27:51.992Z,73.75
2019-06-20T05:30:22.608Z,77.22
2019-06-20T05:32:51.911Z,70.10
2019-06-20T05:35:21.194Z,55.03
2019-06-20T05:37:50.496Z,57.05
2019-06-20T05:40:21.258Z,57.30
2019-06-20T05:42:50.583Z,58.38
2019-06-20T05:45:19.938Z,61.98
2019-06-20T05:47:49.928Z,60.30
2019-06-20T05:50:20.504Z,63.80
2019-06-20T05:52:51.020Z,63.52
2019-06-20T05:55:20.333Z,61.55
2019-06-20T05:57:51.167Z,63.80
2019-06-20T06:00:21.818Z,66.95
2019-06-20T06:02:51.171Z,61.08
2019-06-20T06:05:20.474Z,63.28
2019-06-20T06:07:49.771Z,63.35
2019-06-20T06:10:19.071Z,57.75
2019-06-20T06:12:48.349Z,57.70
2019-06-20T06:15:18.753Z,56.90
2019-06-20T06:17:48.003Z,49.25
2019-06-20T06:20:19.150Z,46.92
2019-06-20T06:22:48.425Z,47.40
2019-06-20T06:25:18.008Z,48.38
2019-06-20T06:27:47.278Z,50.45
2019-06-20T06:30:16.940Z,52.78
2019-06-20T06:32:46.226Z,56.58
2019-06-20T06:35:15.953Z,51.48
2019-06-20T06:37:45.227Z,56.05
2019-06-20T06:40:15.734Z,50.40
2019-06-20T06:42:45.028Z,50.55
2019-06-20T06:45:14.694Z,50.45
2019-06-20T06:47:43.956Z,47.85
2019-06-20T06:50:13.640Z,54.23
2019-06-20T06:52:43.983Z,52.95
2019-06-20T06:55:14.429Z,53.75
2019-06-20T06:57:43.874Z,48.48
2019-06-20T07:00:14.621Z,50.73
2019-06-20T07:02:43.915Z,49.83
2019-06-20T07:05:13.487Z,50.08
2019-06-20T07:07:42.756Z,49.08
2019-06-20T07:10:12.510Z,52.15
2019-06-20T07:12:41.796Z,51.48
2019-06-20T07:15:11.839Z,52.73
2019-06-20T07:17:41.116Z,47.58
2019-06-20T07:20:10.849Z,49.48
2019-06-20T07:22:40.131Z,48.87
2019-06-20T07:25:10.140Z,45.95
2019-06-20T07:27:39.504Z,43.78
2019-06-20T07:30:10.739Z,43.58
2019-06-20T07:32:40.018Z,42.15
2019-06-20T07:35:09.593Z,42.90
2019-06-20T07:37:38.875Z,44.58
2019-06-20T07:40:09.124Z,43.68
2019-06-20T07:42:38.479Z,44.20
2019-06-20T07:45:08.944Z,44.53
2019-06-20T07:47:38.365Z,40.60
2019-06-20T07:50:10.357Z,46.00
2019-06-20T07:52:40.739Z,44.38
2019-06-20T07:55:10.035Z,42.78
2019-06-20T07:57:39.411Z,45.23
2019-06-20T08:00:10.655Z,40.55
2019-06-20T08:02:42.017Z,39.23
2019-06-20T08:05:12.298Z,40.28
2019-06-20T08:07:44.388Z,39.95
2019-06-20T08:10:18.944Z,42.45
2019-06-20T21:22:30.361Z,9.10
2019-06-20T21:24:59.837Z,12.85
2019-06-20T21:27:29.156Z,9.40
2019-06-20T21:29:58.629Z,12.47
2019-06-20T21:32:27.919Z,9.05
2019-06-20T21:34:57.214Z,12.80
2019-06-20T21:37:26.539Z,8.18
2019-06-20T21:39:55.939Z,7.45
2019-06-20T21:42:25.409Z,9.55
2019-06-20T21:44:54.740Z,14.55
2019-06-20T21:47:25.308Z,10.58
2019-06-20T21:49:54.585Z,10.23
2019-06-20T21:52:24.115Z,11.25
2019-06-20T21:54:53.591Z,8.73
2019-06-20T21:57:22.931Z,10.50
2019-06-20T21:59:52.205Z,8.30
2019-06-20T22:02:22.657Z,13.65
2019-06-20T22:04:54.659Z,9.55
2019-06-20T22:07:24.744Z,18.07
2019-06-20T22:09:54.013Z,10.93
2019-06-20T22:12:23.351Z,9.60
2019-06-20T22:14:53.717Z,15.63
2019-06-20T22:17:23.213Z,8.60
2019-06-20T22:19:52.486Z,12.40
2019-06-20T22:22:21.773Z,11.30
2019-06-20T22:24:51.157Z,13.40
2019-06-20T22:27:20.438Z,8.98
2019-06-20T22:29:49.739Z,10.13
2019-06-20T22:32:19.034Z,13.32
2019-06-20T22:34:48.312Z,10.20
2019-06-20T22:37:17.576Z,11.80
2019-06-20T22:39:46.895Z,13.35
2019-06-20T22:42:16.280Z,12.23
2019-06-20T22:44:46.634Z,11.85
2019-06-20T22:47:15.899Z,6.95
2019-06-20T22:49:45.208Z,7.87
2019-06-20T22:52:14.469Z,11.30
2019-06-20T22:54:43.773Z,15.38
2019-06-20T22:57:13.059Z,11.50
2019-06-20T22:59:42.940Z,9.03
2019-06-20T23:02:13.342Z,10.78
2019-06-20T23:04:42.608Z,13.35
2019-06-20T23:07:11.992Z,15.50
2019-06-20T23:09:41.254Z,13.90
2019-06-20T23:12:11.069Z,11.38
2019-06-20T23:14:40.303Z,15.48
2019-06-20T23:17:09.663Z,12.80
2019-06-20T23:19:40.042Z,12.55
2019-06-20T23:22:09.397Z,11.22
2019-06-20T23:24:38.674Z,13.78
2019-06-20T23:27:07.971Z,8.33
2019-06-20T23:29:37.236Z,12.05
2019-06-20T23:32:06.575Z,13.08
2019-06-20T23:34:35.837Z,11.50
2019-06-20T23:37:12.588Z,13.20
2019-06-20T23:39:37.275Z,11.48
2019-06-20T23:42:06.623Z,12.65
2019-06-20T23:44:35.922Z,14.93
2019-06-20T23:47:05.268Z,13.00
2019-06-20T23:49:34.569Z,10.90
2019-06-20T23:52:14.182Z,11.35
2019-06-20T23:54:43.449Z,11.43
2019-06-20T23:57:12.746Z,11.45
2019-06-20T23:59:42.569Z,16.32
